sensor_id;sensor_type;location;lat;lon;timestamp;temperature;humidity
75113;DHT22;63692;47.338;8.520;2023-02-16T05:24:17;0.30;99.90
75113;DHT22;63692;47.338;8.520;2023-02-16T05:26:43;0.30;99.90
75113;DHT22;63692;47.338;8.520;2023-02-16T05:29:08;0.20;99.90
75113;DHT22;63692;47.338;8.520;2023-02-16T05:31:34;0.20;99.90
75113;DHT22;63692;47.338;8.520;2023-02-16T05:33:59;0.20;99.90
75113;DHT22;63692;47.338;8.520;2023-02-16T05:38:53;0.30;99.90
75113;DHT22;63692;47.338;8.520;2023-02-16T05:41:18;0.30;99.90
75113;DHT22;63692;47.338;8.520;2023-02-16T05:43:51;0.30;99.90
75113;DHT22;63692;47.338;8.520;2023-02-16T05:46:17;0.30;99.90
75113;DHT22;63692;47.338;8.520;2023-02-16T05:48:42;0.30;99.90
75113;DHT22;63692;47.338;8.520;2023-02-16T05:51:08;0.30;99.90
75113;DHT22;63692;47.338;8.520;2023-02-16T05:53:33;0.30;99.90
75113;DHT22;63692;47.338;8.520;2023-02-16T05:55:59;0.30;99.90
75113;DHT22;63692;47.338;8.520;2023-02-16T05:58:24;0.40;99.90
75113;DHT22;63692;47.338;8.520;2023-02-16T06:00:50;0.30;99.90
75113;DHT22;63692;47.338;8.520;2023-02-16T06:03:15;0.30;99.90
75113;DHT22;63692;47.338;8.520;2023-02-16T06:05:41;0.30;99.90
75113;DHT22;63692;47.338;8.520;2023-02-16T06:08:06;0.20;99.90
75113;DHT22;63692;47.338;8.520;2023-02-16T06:10:33;0.20;99.90
75113;DHT22;63692;47.338;8.520;2023-02-16T06:12:58;0.30;99.90
75113;DHT22;63692;47.338;8.520;2023-02-16T06:15:24;0.30;99.90
75113;DHT22;63692;47.338;8.520;2023-02-16T06:17:49;0.30;99.90
75113;DHT22;63692;47.338;8.520;2023-02-16T06:20:15;0.20;99.90
75113;DHT22;63692;47.338;8.520;2023-02-16T06:22:40;0.10;99.90
75113;DHT22;63692;47.338;8.520;2023-02-16T06:25:06;0.10;99.90
75113;DHT22;63692;47.338;8.520;2023-02-16T06:27:31;0.10;99.90
75113;DHT22;63692;47.338;8.520;2023-02-16T06:29:57;0.10;99.90
75113;DHT22;63692;47.338;8.520;2023-02-16T06:32:22;0.10;99.90
75113;DHT22;63692;47.338;8.520;2023-02-16T06:34:48;0.10;99.90
75113;DHT22;63692;47.338;8.520;2023-02-16T06:37:14;0.10;99.90
75113;DHT22;63692;47.338;8.520;2023-02-16T06:39:39;0.20;99.90
75113;DHT22;63692;47.338;8.520;2023-02-16T06:42:05;0.30;99.90
75113;DHT22;63692;47.338;8.520;2023-02-16T06:44:30;0.20;99.90
75113;DHT22;63692;47.338;8.520;2023-02-16T06:46:56;0.20;99.90
75113;DHT22;63692;47.338;8.520;2023-02-16T06:49:21;0.20;99.90
75113;DHT22;63692;47.338;8.520;2023-02-16T06:51:48;0.10;99.90
75113;DHT22;63692;47.338;8.520;2023-02-16T06:54:14;0.20;99.90
75113;DHT22;63692;47.338;8.520;2023-02-16T06:56:40;0.10;99.90
75113;DHT22;63692;47.338;8.520;2023-02-16T06:59:06;0.10;99.90
75113;DHT22;63692;47.338;8.520;2023-02-16T07:01:31;0.10;99.90
75113;DHT22;63692;47.338;8.520;2023-02-16T07:03:57;0.00;99.90
75113;DHT22;63692;47.338;8.520;2023-02-16T07:06:25;0.10;99.90
75113;DHT22;63692;47.338;8.520;2023-02-16T07:08:51;0.10;99.90
75113;DHT22;63692;47.338;8.520;2023-02-16T07:11:17;0.20;99.90
75113;DHT22;63692;47.338;8.520;2023-02-16T07:13:43;0.20;99.90
75113;DHT22;63692;47.338;8.520;2023-02-16T07:16:10;0.20;99.90
75113;DHT22;63692;47.338;8.520;2023-02-16T07:18:35;0.20;99.90
75113;DHT22;63692;47.338;8.520;2023-02-16T07:21:02;0.30;99.90
75113;DHT22;63692;47.338;8.520;2023-02-16T07:23:27;0.30;99.90
75113;DHT22;63692;47.338;8.520;2023-02-16T07:25:53;0.40;99.90
75113;DHT22;63692;47.338;8.520;2023-02-16T07:28:19;0.50;99.90
75113;DHT22;63692;47.338;8.520;2023-02-16T07:30:44;0.50;99.90
75113;DHT22;63692;47.338;8.520;2023-02-16T07:33:10;0.50;99.90
75113;DHT22;63692;47.338;8.520;2023-02-16T07:35:36;0.40;99.90
75113;DHT22;63692;47.338;8.520;2023-02-16T07:38:03;0.40;99.90
75113;DHT22;63692;47.338;8.520;2023-02-16T07:40:29;0.50;99.90
75113;DHT22;63692;47.338;8.520;2023-02-16T07:43:00;0.50;99.90
75113;DHT22;63692;47.338;8.520;2023-02-16T07:45:27;0.60;99.90
75113;DHT22;63692;47.338;8.520;2023-02-16T07:47:52;0.60;99.90
75113;DHT22;63692;47.338;8.520;2023-02-16T07:50:18;0.50;99.90
75113;DHT22;63692;47.338;8.520;2023-02-16T07:52:44;0.60;99.90
75113;DHT22;63692;47.338;8.520;2023-02-16T07:55:10;0.60;99.90
75113;DHT22;63692;47.338;8.520;2023-02-16T07:57:37;0.70;99.90
75113;DHT22;63692;47.338;8.520;2023-02-16T08:00:06;0.80;99.90
75113;DHT22;63692;47.338;8.520;2023-02-16T08:02:33;0.90;99.90
75113;DHT22;63692;47.338;8.520;2023-02-16T08:04:59;0.90;99.90
75113;DHT22;63692;47.338;8.520;2023-02-16T08:07:25;0.80;99.90
75113;DHT22;63692;47.338;8.520;2023-02-16T08:09:51;0.80;99.90
75113;DHT22;63692;47.338;8.520;2023-02-16T08:12:17;0.80;99.90
75113;DHT22;63692;47.338;8.520;2023-02-16T08:14:44;0.80;99.90
75113;DHT22;63692;47.338;8.520;2023-02-16T08:17:14;0.90;99.90
75113;DHT22;63692;47.338;8.520;2023-02-16T08:41:53;1.60;99.90
75113;DHT22;63692;47.338;8.520;2023-02-16T08:44:21;1.70;99.90
75113;DHT22;63692;47.338;8.520;2023-02-16T08:46:48;1.80;99.90
75113;DHT22;63692;47.338;8.520;2023-02-16T08:49:16;1.90;99.90
75113;DHT22;63692;47.338;8.520;2023-02-16T08:51:45;1.90;99.90
75113;DHT22;63692;47.338;8.520;2023-02-16T08:54:28;2.00;99.90
75113;DHT22;63692;47.338;8.520;2023-02-16T08:56:56;2.10;99.90
75113;DHT22;63692;47.338;8.520;2023-02-16T08:59:23;2.20;99.90
75113;DHT22;63692;47.338;8.520;2023-02-16T09:01:49;2.20;99.90
75113;DHT22;63692;47.338;8.520;2023-02-16T09:04:16;2.30;99.90
75113;DHT22;63692;47.338;8.520;2023-02-16T09:06:43;2.40;99.90
75113;DHT22;63692;47.338;8.520;2023-02-16T09:09:10;2.40;99.90
75113;DHT22;63692;47.338;8.520;2023-02-16T09:11:36;2.50;99.90
75113;DHT22;63692;47.338;8.520;2023-02-16T09:14:02;2.60;99.90
75113;DHT22;63692;47.338;8.520;2023-02-16T09:16:29;2.70;99.90
75113;DHT22;63692;47.338;8.520;2023-02-16T09:19:00;2.80;99.90
75113;DHT22;63692;47.338;8.520;2023-02-16T09:21:26;2.90;99.90
75113;DHT22;63692;47.338;8.520;2023-02-16T09:23:56;2.90;99.90
75113;DHT22;63692;47.338;8.520;2023-02-16T09:26:24;3.00;99.90
75113;DHT22;63692;47.338;8.520;2023-02-16T09:28:50;3.10;99.90
75113;DHT22;63692;47.338;8.520;2023-02-16T09:31:17;3.20;99.90
75113;DHT22;63692;47.338;8.520;2023-02-16T09:33:47;3.30;99.90
75113;DHT22;63692;47.338;8.520;2023-02-16T09:36:13;3.40;99.90
75113;DHT22;63692;47.338;8.520;2023-02-16T09:38:39;3.40;99.90
75113;DHT22;63692;47.338;8.520;2023-02-16T09:41:30;3.50;99.90
75113;DHT22;63692;47.338;8.520;2023-02-16T09:46:41;3.60;99.90
75113;DHT22;63692;47.338;8.520;2023-02-16T09:49:21;3.70;99.90
75113;DHT22;63692;47.338;8.520;2023-02-16T09:51:51;3.80;99.90
75113;DHT22;63692;47.338;8.520;2023-02-16T09:54:44;3.90;99.90
75113;DHT22;63692;47.338;8.520;2023-02-16T09:57:21;3.90;99.90
75113;DHT22;63692;47.338;8.520;2023-02-16T10:02:52;4.00;99.90
75113;DHT22;63692;47.338;8.520;2023-02-16T10:05:33;4.00;99.90
75113;DHT22;63692;47.338;8.520;2023-02-16T10:08:14;4.10;99.90
75113;DHT22;63692;47.338;8.520;2023-02-16T10:10:45;4.10;99.90
75113;DHT22;63692;47.338;8.520;2023-02-16T10:13:32;4.10;99.90
75113;DHT22;63692;47.338;8.520;2023-02-16T10:16:01;4.20;99.90
75113;DHT22;63692;47.338;8.520;2023-02-16T10:18:39;4.20;99.90
75113;DHT22;63692;47.338;8.520;2023-02-16T10:21:12;4.30;99.90
75113;DHT22;63692;47.338;8.520;2023-02-16T10:23:51;4.30;99.90
75113;DHT22;63692;47.338;8.520;2023-02-16T10:26:24;4.40;99.90
75113;DHT22;63692;47.338;8.520;2023-02-16T10:28:54;4.50;99.90
75113;DHT22;63692;47.338;8.520;2023-02-16T10:34:23;4.60;99.90
75113;DHT22;63692;47.338;8.520;2023-02-16T10:37:05;4.70;99.90
75113;DHT22;63692;47.338;8.520;2023-02-16T10:42:32;4.80;99.90
75113;DHT22;63692;47.338;8.520;2023-02-16T10:47:57;4.90;99.90
75113;DHT22;63692;47.338;8.520;2023-02-16T10:50:31;4.90;99.90
75113;DHT22;63692;47.338;8.520;2023-02-16T10:53:05;5.00;99.90
75113;DHT22;63692;47.338;8.520;2023-02-16T10:55:32;5.00;99.90
75113;DHT22;63692;47.338;8.520;2023-02-16T10:58:00;5.00;99.90
75113;DHT22;63692;47.338;8.520;2023-02-16T11:00:53;5.10;99.90
75113;DHT22;63692;47.338;8.520;2023-02-16T11:03:23;5.10;99.90
75113;DHT22;63692;47.338;8.520;2023-02-16T11:10:51;5.30;99.60
75113;DHT22;63692;47.338;8.520;2023-02-16T11:33:04;5.90;98.00
75113;DHT22;63692;47.338;8.520;2023-02-16T11:35:41;5.90;98.00
75113;DHT22;63692;47.338;8.520;2023-02-16T11:43:28;6.00;97.60
75113;DHT22;63692;47.338;8.520;2023-02-16T11:46:03;6.10;97.50
75113;DHT22;63692;47.338;8.520;2023-02-16T11:48:31;6.10;97.50
75113;DHT22;63692;47.338;8.520;2023-02-16T11:51:06;6.20;97.40
75113;DHT22;63692;47.338;8.520;2023-02-16T11:53:33;6.20;97.50
75113;DHT22;63692;47.338;8.520;2023-02-16T11:56:23;6.30;97.40
75113;DHT22;63692;47.338;8.520;2023-02-16T11:59:16;6.30;96.80
75113;DHT22;63692;47.338;8.520;2023-02-16T12:02:16;6.40;96.10
75113;DHT22;63692;47.338;8.520;2023-02-16T12:05:09;6.50;95.60
75113;DHT22;63692;47.338;8.520;2023-02-16T12:07:44;6.60;94.60
75113;DHT22;63692;47.338;8.520;2023-02-16T12:16:34;6.80;93.90
75113;DHT22;63692;47.338;8.520;2023-02-16T12:19:07;6.90;93.80
75113;DHT22;63692;47.338;8.520;2023-02-16T12:27:09;7.20;91.90
75113;DHT22;63692;47.338;8.520;2023-02-16T12:29:45;7.30;90.80
75113;DHT22;63692;47.338;8.520;2023-02-16T12:32:38;7.50;90.70
75113;DHT22;63692;47.338;8.520;2023-02-16T12:46:09;7.90;88.30
75113;DHT22;63692;47.338;8.520;2023-02-16T12:48:52;8.00;88.70
75113;DHT22;63692;47.338;8.520;2023-02-16T12:51:33;8.10;87.30
75113;DHT22;63692;47.338;8.520;2023-02-16T12:56:44;8.20;86.10
75113;DHT22;63692;47.338;8.520;2023-02-16T12:59:41;8.30;86.60
75113;DHT22;63692;47.338;8.520;2023-02-16T13:02:32;8.40;84.30
75113;DHT22;63692;47.338;8.520;2023-02-16T13:05:13;8.50;84.10
75113;DHT22;63692;47.338;8.520;2023-02-16T13:07:46;8.60;84.20
75113;DHT22;63692;47.338;8.520;2023-02-16T13:10:30;8.90;81.40
75113;DHT22;63692;47.338;8.520;2023-02-16T13:13:13;9.40;79.20
75113;DHT22;63692;47.338;8.520;2023-02-16T13:18:25;9.80;77.20
75113;DHT22;63692;47.338;8.520;2023-02-16T13:26:32;10.80;73.20
75113;DHT22;63692;47.338;8.520;2023-02-16T13:31:43;11.00;69.20
75113;DHT22;63692;47.338;8.520;2023-02-16T13:34:46;11.10;70.20
75113;DHT22;63692;47.338;8.520;2023-02-16T13:37:47;11.50;71.50
75113;DHT22;63692;47.338;8.520;2023-02-16T13:43:29;11.80;69.00
75113;DHT22;63692;47.338;8.520;2023-02-16T13:45:56;11.90;67.90
75113;DHT22;63692;47.338;8.520;2023-02-16T13:48:36;11.70;64.00
75113;DHT22;63692;47.338;8.520;2023-02-16T13:51:05;12.00;61.10
75113;DHT22;63692;47.338;8.520;2023-02-16T13:58:38;12.80;57.10
75113;DHT22;63692;47.338;8.520;2023-02-16T14:03:37;13.10;57.10
75113;DHT22;63692;47.338;8.520;2023-02-16T14:14:37;12.60;64.10
75113;DHT22;63692;47.338;8.520;2023-02-16T14:17:28;12.70;60.20
75113;DHT22;63692;47.338;8.520;2023-02-16T14:22:55;13.30;59.10
75113;DHT22;63692;47.338;8.520;2023-02-16T14:30:54;12.90;64.00
75113;DHT22;63692;47.338;8.520;2023-02-16T14:33:42;12.60;63.80
75113;DHT22;63692;47.338;8.520;2023-02-16T14:36:14;12.40;64.60
75113;DHT22;63692;47.338;8.520;2023-02-16T14:47:36;11.80;61.70
75113;DHT22;63692;47.338;8.520;2023-02-16T14:56:09;11.70;65.50
75113;DHT22;63692;47.338;8.520;2023-02-16T14:58:51;11.90;67.20
75113;DHT22;63692;47.338;8.520;2023-02-16T15:01:20;12.10;67.40
75113;DHT22;63692;47.338;8.520;2023-02-16T15:03:48;12.20;68.60
75113;DHT22;63692;47.338;8.520;2023-02-16T15:06:42;12.40;67.00
75113;DHT22;63692;47.338;8.520;2023-02-16T15:09:20;12.30;67.90
75113;DHT22;63692;47.338;8.520;2023-02-16T15:11:53;12.10;66.40
75113;DHT22;63692;47.338;8.520;2023-02-16T15:14:45;12.00;64.00
75113;DHT22;63692;47.338;8.520;2023-02-16T15:22:51;11.90;68.60
75113;DHT22;63692;47.338;8.520;2023-02-16T15:25:28;11.90;69.70
75113;DHT22;63692;47.338;8.520;2023-02-16T15:27:57;11.80;69.30
75113;DHT22;63692;47.338;8.520;2023-02-16T15:30:31;11.70;69.10
75113;DHT22;63692;47.338;8.520;2023-02-16T15:33:03;11.60;66.50
75113;DHT22;63692;47.338;8.520;2023-02-16T15:35:40;11.60;68.80
75113;DHT22;63692;47.338;8.520;2023-02-16T15:38:18;11.50;72.90
75113;DHT22;63692;47.338;8.520;2023-02-16T15:40:46;11.50;67.80
75113;DHT22;63692;47.338;8.520;2023-02-16T15:46:14;11.40;73.20
75113;DHT22;63692;47.338;8.520;2023-02-16T15:48:47;11.30;69.70
75113;DHT22;63692;47.338;8.520;2023-02-16T15:51:17;11.20;74.10
75113;DHT22;63692;47.338;8.520;2023-02-16T15:53:53;11.20;73.40
75113;DHT22;63692;47.338;8.520;2023-02-16T15:56:45;11.10;75.90
75113;DHT22;63692;47.338;8.520;2023-02-16T16:02:12;11.00;76.60
75113;DHT22;63692;47.338;8.520;2023-02-16T16:04:50;10.90;76.30
75113;DHT22;63692;47.338;8.520;2023-02-16T16:07:24;10.90;75.40
75113;DHT22;63692;47.338;8.520;2023-02-16T16:09:50;10.80;73.70
75113;DHT22;63692;47.338;8.520;2023-02-16T16:12:17;10.80;75.40
75113;DHT22;63692;47.338;8.520;2023-02-16T16:17:17;10.70;76.10
75113;DHT22;63692;47.338;8.520;2023-02-16T16:19:45;10.70;78.60
75113;DHT22;63692;47.338;8.520;2023-02-16T16:22:34;10.60;78.60
75113;DHT22;63692;47.338;8.520;2023-02-16T16:25:01;10.50;79.40
75113;DHT22;63692;47.338;8.520;2023-02-16T16:27:33;10.40;79.70
75113;DHT22;63692;47.338;8.520;2023-02-16T16:30:20;10.40;82.00
75113;DHT22;63692;47.338;8.520;2023-02-16T16:33:04;10.30;83.60
75113;DHT22;63692;47.338;8.520;2023-02-16T16:38:02;10.10;81.80
75113;DHT22;63692;47.338;8.520;2023-02-16T16:40:36;10.00;85.00
75113;DHT22;63692;47.338;8.520;2023-02-16T16:48:33;9.80;83.60
75113;DHT22;63692;47.338;8.520;2023-02-16T16:51:16;9.70;84.10
75113;DHT22;63692;47.338;8.520;2023-02-16T16:56:21;9.60;88.80
75113;DHT22;63692;47.338;8.520;2023-02-16T16:58:48;9.50;87.30
75113;DHT22;63692;47.338;8.520;2023-02-16T17:01:14;9.50;87.80
75113;DHT22;63692;47.338;8.520;2023-02-16T17:03:40;9.40;87.60
75113;DHT22;63692;47.338;8.520;2023-02-16T17:06:06;9.30;88.40
75113;DHT22;63692;47.338;8.520;2023-02-16T17:08:33;9.30;90.30
75113;DHT22;63692;47.338;8.520;2023-02-16T17:10:59;9.20;89.70
75113;DHT22;63692;47.338;8.520;2023-02-16T17:13:26;9.10;89.50
75113;DHT22;63692;47.338;8.520;2023-02-16T17:16:02;9.10;89.10
75113;DHT22;63692;47.338;8.520;2023-02-16T17:18:28;9.10;89.00
75113;DHT22;63692;47.338;8.520;2023-02-16T17:20:54;9.00;90.40
75113;DHT22;63692;47.338;8.520;2023-02-16T17:23:21;9.00;90.50
75113;DHT22;63692;47.338;8.520;2023-02-16T17:25:47;8.90;90.00
75113;DHT22;63692;47.338;8.520;2023-02-16T17:28:14;8.90;90.40
75113;DHT22;63692;47.338;8.520;2023-02-16T17:30:41;8.90;90.00
75113;DHT22;63692;47.338;8.520;2023-02-16T17:33:08;8.90;89.50
75113;DHT22;63692;47.338;8.520;2023-02-16T17:35:35;8.80;89.90
75113;DHT22;63692;47.338;8.520;2023-02-16T17:38:27;8.80;90.10
75113;DHT22;63692;47.338;8.520;2023-02-16T17:40:55;8.70;90.10
75113;DHT22;63692;47.338;8.520;2023-02-16T17:43:22;8.80;88.60
75113;DHT22;63692;47.338;8.520;2023-02-16T17:45:49;8.80;89.40
75113;DHT22;63692;47.338;8.520;2023-02-16T17:48:19;8.80;90.60
75113;DHT22;63692;47.338;8.520;2023-02-16T17:50:45;8.70;90.40
75113;DHT22;63692;47.338;8.520;2023-02-16T17:53:16;8.70;90.50
75113;DHT22;63692;47.338;8.520;2023-02-16T17:55:43;8.70;90.60
75113;DHT22;63692;47.338;8.520;2023-02-16T17:58:12;8.70;90.90
75113;DHT22;63692;47.338;8.520;2023-02-16T18:00:40;8.60;90.40
75113;DHT22;63692;47.338;8.520;2023-02-16T18:03:06;8.60;90.60
75113;DHT22;63692;47.338;8.520;2023-02-16T18:05:32;8.50;90.70
75113;DHT22;63692;47.338;8.520;2023-02-16T18:07:58;8.50;91.20
75113;DHT22;63692;47.338;8.520;2023-02-16T18:10:45;8.50;91.20
75113;DHT22;63692;47.338;8.520;2023-02-16T18:13:12;8.50;90.90
75113;DHT22;63692;47.338;8.520;2023-02-16T18:15:40;8.50;91.20
75113;DHT22;63692;47.338;8.520;2023-02-16T18:18:06;8.40;91.50
75113;DHT22;63692;47.338;8.520;2023-02-16T18:20:32;8.40;91.00
75113;DHT22;63692;47.338;8.520;2023-02-16T18:22:58;8.40;91.00
75113;DHT22;63692;47.338;8.520;2023-02-16T18:25:24;8.40;91.00
75113;DHT22;63692;47.338;8.520;2023-02-16T18:27:50;8.40;90.80
75113;DHT22;63692;47.338;8.520;2023-02-16T18:30:16;8.40;90.70
75113;DHT22;63692;47.338;8.520;2023-02-16T18:32:42;8.40;90.90
75113;DHT22;63692;47.338;8.520;2023-02-16T18:35:10;8.30;90.60
75113;DHT22;63692;47.338;8.520;2023-02-16T18:37:36;8.30;90.50
75113;DHT22;63692;47.338;8.520;2023-02-16T18:40:04;8.30;90.60
75113;DHT22;63692;47.338;8.520;2023-02-16T18:42:30;8.30;90.70
75113;DHT22;63692;47.338;8.520;2023-02-16T18:44:56;8.20;90.80
75113;DHT22;63692;47.338;8.520;2023-02-16T18:47:22;8.30;91.00
75113;DHT22;63692;47.338;8.520;2023-02-16T18:49:47;8.20;91.60
75113;DHT22;63692;47.338;8.520;2023-02-16T18:52:15;8.20;91.40
75113;DHT22;63692;47.338;8.520;2023-02-16T18:54:40;8.20;91.30
75113;DHT22;63692;47.338;8.520;2023-02-16T18:57:06;8.10;91.30
75113;DHT22;63692;47.338;8.520;2023-02-16T18:59:31;8.10;91.60
75113;DHT22;63692;47.338;8.520;2023-02-16T19:01:58;8.10;91.60
75113;DHT22;63692;47.338;8.520;2023-02-16T19:04:24;8.10;91.60
75113;DHT22;63692;47.338;8.520;2023-02-16T19:06:50;8.10;91.60
75113;DHT22;63692;47.338;8.520;2023-02-16T19:09:17;8.10;91.30
75113;DHT22;63692;47.338;8.520;2023-02-16T19:11:43;8.10;91.50
75113;DHT22;63692;47.338;8.520;2023-02-16T19:14:09;8.10;91.30
75113;DHT22;63692;47.338;8.520;2023-02-16T19:16:39;8.10;92.00
75113;DHT22;63692;47.338;8.520;2023-02-16T19:19:05;8.00;92.20
75113;DHT22;63692;47.338;8.520;2023-02-16T19:21:31;8.00;92.30
75113;DHT22;63692;47.338;8.520;2023-02-16T19:23:57;8.00;91.90
75113;DHT22;63692;47.338;8.520;2023-02-16T19:26:23;8.00;91.50
75113;DHT22;63692;47.338;8.520;2023-02-16T19:28:48;7.90;91.60
75113;DHT22;63692;47.338;8.520;2023-02-16T19:31:18;7.90;90.90
75113;DHT22;63692;47.338;8.520;2023-02-16T19:33:44;7.90;91.00
75113;DHT22;63692;47.338;8.520;2023-02-16T19:36:11;7.90;91.70
75113;DHT22;63692;47.338;8.520;2023-02-16T19:38:37;7.90;91.10
75113;DHT22;63692;47.338;8.520;2023-02-16T19:41:08;7.90;91.10
75113;DHT22;63692;47.338;8.520;2023-02-16T19:43:34;7.90;91.40
75113;DHT22;63692;47.338;8.520;2023-02-16T19:46:02;7.80;91.20
75113;DHT22;63692;47.338;8.520;2023-02-16T19:48:28;7.80;91.30
75113;DHT22;63692;47.338;8.520;2023-02-16T19:51:01;7.80;91.20
75113;DHT22;63692;47.338;8.520;2023-02-16T19:53:27;7.90;91.10
75113;DHT22;63692;47.338;8.520;2023-02-16T19:55:53;7.80;91.20
